sensor_id;sensor_type;location;lat;lon;timestamp;temperature;humidity
666;DHT22;315;48.738;9.126;2022-07-06T00:01:45;18.20;98.00
666;DHT22;315;48.738;9.126;2022-07-06T00:04:11;18.10;99.30
666;DHT22;315;48.738;9.126;2022-07-06T00:06:36;18.10;98.80
666;DHT22;315;48.738;9.126;2022-07-06T00:09:03;18.10;98.90
666;DHT22;315;48.738;9.126;2022-07-06T00:11:28;18.10;99.40
666;DHT22;315;48.738;9.126;2022-07-06T00:13:54;18.00;99.90
666;DHT22;315;48.738;9.126;2022-07-06T00:16:22;18.00;99.90
666;DHT22;315;48.738;9.126;2022-07-06T00:18:48;17.90;99.90
666;DHT22;315;48.738;9.126;2022-07-06T00:21:13;17.90;99.90
666;DHT22;315;48.738;9.126;2022-07-06T00:23:39;17.90;99.90
666;DHT22;315;48.738;9.126;2022-07-06T00:26:04;17.90;99.90
666;DHT22;315;48.738;9.126;2022-07-06T00:28:30;17.90;99.90
666;DHT22;315;48.738;9.126;2022-07-06T00:30:56;17.80;99.90
666;DHT22;315;48.738;9.126;2022-07-06T00:33:22;17.80;99.90
666;DHT22;315;48.738;9.126;2022-07-06T00:35:48;17.80;99.90
666;DHT22;315;48.738;9.126;2022-07-06T00:38:13;17.80;99.90
666;DHT22;315;48.738;9.126;2022-07-06T00:40:39;17.80;99.90
666;DHT22;315;48.738;9.126;2022-07-06T00:43:05;17.70;99.90
666;DHT22;315;48.738;9.126;2022-07-06T00:45:30;17.70;99.90
666;DHT22;315;48.738;9.126;2022-07-06T00:47:56;17.60;99.90
666;DHT22;315;48.738;9.126;2022-07-06T00:50:22;17.60;99.90
666;DHT22;315;48.738;9.126;2022-07-06T00:52:59;17.60;99.90
666;DHT22;315;48.738;9.126;2022-07-06T00:55:31;17.60;99.90
666;DHT22;315;48.738;9.126;2022-07-06T00:57:57;17.60;99.90
666;DHT22;315;48.738;9.126;2022-07-06T01:00:25;17.50;99.90
666;DHT22;315;48.738;9.126;2022-07-06T01:02:52;17.40;99.90
666;DHT22;315;48.738;9.126;2022-07-06T01:05:18;17.40;99.90
666;DHT22;315;48.738;9.126;2022-07-06T01:07:46;17.40;99.90
666;DHT22;315;48.738;9.126;2022-07-06T01:10:15;17.40;99.90
666;DHT22;315;48.738;9.126;2022-07-06T01:12:42;17.30;99.90
666;DHT22;315;48.738;9.126;2022-07-06T01:15:11;17.30;99.90
666;DHT22;315;48.738;9.126;2022-07-06T01:17:39;17.40;99.90
666;DHT22;315;48.738;9.126;2022-07-06T01:20:14;17.40;99.90
666;DHT22;315;48.738;9.126;2022-07-06T01:22:41;17.30;99.90
666;DHT22;315;48.738;9.126;2022-07-06T01:25:07;17.30;99.90
666;DHT22;315;48.738;9.126;2022-07-06T01:27:38;17.20;99.90
666;DHT22;315;48.738;9.126;2022-07-06T01:30:09;17.20;99.90
666;DHT22;315;48.738;9.126;2022-07-06T01:32:35;17.10;99.90
666;DHT22;315;48.738;9.126;2022-07-06T01:35:01;17.00;99.90
666;DHT22;315;48.738;9.126;2022-07-06T01:37:27;16.90;99.90
666;DHT22;315;48.738;9.126;2022-07-06T01:39:52;17.00;99.90
666;DHT22;315;48.738;9.126;2022-07-06T01:42:18;17.00;99.90
666;DHT22;315;48.738;9.126;2022-07-06T01:44:44;16.90;99.90
666;DHT22;315;48.738;9.126;2022-07-06T01:47:10;16.90;99.90
666;DHT22;315;48.738;9.126;2022-07-06T01:49:36;16.90;99.90
666;DHT22;315;48.738;9.126;2022-07-06T01:52:02;16.90;99.90
666;DHT22;315;48.738;9.126;2022-07-06T01:54:28;16.90;99.90
666;DHT22;315;48.738;9.126;2022-07-06T01:56:54;16.90;99.90
666;DHT22;315;48.738;9.126;2022-07-06T01:59:19;16.90;99.90
666;DHT22;315;48.738;9.126;2022-07-06T02:01:45;16.90;99.90
666;DHT22;315;48.738;9.126;2022-07-06T02:04:10;17.00;99.90
666;DHT22;315;48.738;9.126;2022-07-06T02:06:36;17.00;99.90
666;DHT22;315;48.738;9.126;2022-07-06T02:09:02;16.90;99.90
666;DHT22;315;48.738;9.126;2022-07-06T02:11:27;16.80;99.90
666;DHT22;315;48.738;9.126;2022-07-06T02:13:53;16.80;99.90
666;DHT22;315;48.738;9.126;2022-07-06T02:16:18;16.80;99.90
666;DHT22;315;48.738;9.126;2022-07-06T02:18:44;16.80;99.90
666;DHT22;315;48.738;9.126;2022-07-06T02:21:10;16.80;99.90
666;DHT22;315;48.738;9.126;2022-07-06T02:23:35;16.70;99.90
666;DHT22;315;48.738;9.126;2022-07-06T02:26:01;16.70;99.90
666;DHT22;315;48.738;9.126;2022-07-06T02:28:26;16.60;99.90
666;DHT22;315;48.738;9.126;2022-07-06T02:30:52;16.60;99.90
666;DHT22;315;48.738;9.126;2022-07-06T02:33:17;16.50;99.90
666;DHT22;315;48.738;9.126;2022-07-06T02:35:43;16.60;99.90
666;DHT22;315;48.738;9.126;2022-07-06T02:38:09;16.60;99.90
666;DHT22;315;48.738;9.126;2022-07-06T02:40:35;16.60;99.90
666;DHT22;315;48.738;9.126;2022-07-06T02:43:01;16.50;99.90
666;DHT22;315;48.738;9.126;2022-07-06T02:45:26;16.50;99.90
666;DHT22;315;48.738;9.126;2022-07-06T02:47:52;16.50;99.90
666;DHT22;315;48.738;9.126;2022-07-06T02:50:20;16.50;99.90
666;DHT22;315;48.738;9.126;2022-07-06T02:52:46;16.50;99.90
666;DHT22;315;48.738;9.126;2022-07-06T02:55:11;16.40;99.90
666;DHT22;315;48.738;9.126;2022-07-06T02:57:37;16.30;99.90
666;DHT22;315;48.738;9.126;2022-07-06T03:00:03;16.30;99.90
666;DHT22;315;48.738;9.126;2022-07-06T03:02:29;16.20;99.90
666;DHT22;315;48.738;9.126;2022-07-06T03:04:54;16.20;99.90
666;DHT22;315;48.738;9.126;2022-07-06T03:07:22;16.30;99.90
666;DHT22;315;48.738;9.126;2022-07-06T03:09:47;16.30;99.90
666;DHT22;315;48.738;9.126;2022-07-06T03:12:13;16.20;99.90
666;DHT22;315;48.738;9.126;2022-07-06T03:14:39;16.20;99.90
666;DHT22;315;48.738;9.126;2022-07-06T03:17:04;16.20;99.90
666;DHT22;315;48.738;9.126;2022-07-06T03:19:30;16.00;99.90
666;DHT22;315;48.738;9.126;2022-07-06T03:21:55;15.90;99.90
666;DHT22;315;48.738;9.126;2022-07-06T03:24:21;15.80;99.90
666;DHT22;315;48.738;9.126;2022-07-06T03:26:46;16.00;99.90
666;DHT22;315;48.738;9.126;2022-07-06T03:29:13;16.00;99.90
666;DHT22;315;48.738;9.126;2022-07-06T03:31:38;16.00;99.90
666;DHT22;315;48.738;9.126;2022-07-06T03:34:04;16.00;99.90
666;DHT22;315;48.738;9.126;2022-07-06T03:36:29;16.00;99.90
666;DHT22;315;48.738;9.126;2022-07-06T03:38:55;15.90;99.90
666;DHT22;315;48.738;9.126;2022-07-06T03:41:21;15.90;99.90
666;DHT22;315;48.738;9.126;2022-07-06T03:43:46;15.80;99.90
666;DHT22;315;48.738;9.126;2022-07-06T03:46:12;15.80;99.90
666;DHT22;315;48.738;9.126;2022-07-06T03:48:37;15.80;99.90
666;DHT22;315;48.738;9.126;2022-07-06T03:51:03;15.90;99.90
666;DHT22;315;48.738;9.126;2022-07-06T03:53:28;15.90;99.90
666;DHT22;315;48.738;9.126;2022-07-06T03:55:54;15.90;99.90
666;DHT22;315;48.738;9.126;2022-07-06T03:58:38;15.90;99.90
666;DHT22;315;48.738;9.126;2022-07-06T04:01:03;15.90;99.90
666;DHT22;315;48.738;9.126;2022-07-06T04:03:29;16.00;99.90
666;DHT22;315;48.738;9.126;2022-07-06T04:05:54;16.10;99.90
666;DHT22;315;48.738;9.126;2022-07-06T04:08:20;16.10;99.90
666;DHT22;315;48.738;9.126;2022-07-06T04:10:45;16.20;99.90
666;DHT22;315;48.738;9.126;2022-07-06T04:13:11;16.20;99.90
666;DHT22;315;48.738;9.126;2022-07-06T04:15:38;16.30;99.90
666;DHT22;315;48.738;9.126;2022-07-06T04:18:04;16.30;99.90
666;DHT22;315;48.738;9.126;2022-07-06T04:20:31;16.50;99.90
666;DHT22;315;48.738;9.126;2022-07-06T04:22:57;16.50;99.90
666;DHT22;315;48.738;9.126;2022-07-06T04:25:24;16.60;99.90
666;DHT22;315;48.738;9.126;2022-07-06T04:27:49;16.70;99.90
666;DHT22;315;48.738;9.126;2022-07-06T04:30:15;16.80;99.90
666;DHT22;315;48.738;9.126;2022-07-06T04:32:40;16.80;99.90
666;DHT22;315;48.738;9.126;2022-07-06T04:35:06;16.80;99.90
666;DHT22;315;48.738;9.126;2022-07-06T04:37:35;16.80;99.90
666;DHT22;315;48.738;9.126;2022-07-06T04:40:01;17.00;99.90
666;DHT22;315;48.738;9.126;2022-07-06T04:42:26;17.20;99.90
666;DHT22;315;48.738;9.126;2022-07-06T04:44:52;17.20;99.90
666;DHT22;315;48.738;9.126;2022-07-06T04:47:18;17.20;99.90
666;DHT22;315;48.738;9.126;2022-07-06T04:49:44;17.40;99.90
666;DHT22;315;48.738;9.126;2022-07-06T04:52:09;17.40;99.90
666;DHT22;315;48.738;9.126;2022-07-06T04:54:35;17.50;99.90
666;DHT22;315;48.738;9.126;2022-07-06T04:57:01;17.50;99.90
666;DHT22;315;48.738;9.126;2022-07-06T04:59:27;17.60;99.90
666;DHT22;315;48.738;9.126;2022-07-06T05:01:52;17.60;99.90
666;DHT22;315;48.738;9.126;2022-07-06T05:04:18;17.80;99.90
666;DHT22;315;48.738;9.126;2022-07-06T05:06:45;17.70;99.90
666;DHT22;315;48.738;9.126;2022-07-06T05:09:12;18.00;99.90
666;DHT22;315;48.738;9.126;2022-07-06T05:11:38;18.10;99.90
666;DHT22;315;48.738;9.126;2022-07-06T05:14:04;18.20;99.90
666;DHT22;315;48.738;9.126;2022-07-06T05:16:30;18.20;99.90
666;DHT22;315;48.738;9.126;2022-07-06T05:18:55;18.20;99.90
666;DHT22;315;48.738;9.126;2022-07-06T05:21:21;18.30;99.90
666;DHT22;315;48.738;9.126;2022-07-06T05:23:47;18.40;99.90
666;DHT22;315;48.738;9.126;2022-07-06T05:26:12;18.60;99.90
666;DHT22;315;48.738;9.126;2022-07-06T05:28:38;18.80;99.90
666;DHT22;315;48.738;9.126;2022-07-06T05:31:03;18.90;99.90
666;DHT22;315;48.738;9.126;2022-07-06T05:33:29;19.00;99.90
666;DHT22;315;48.738;9.126;2022-07-06T05:35:55;19.10;99.90
666;DHT22;315;48.738;9.126;2022-07-06T05:38:20;19.00;99.90
666;DHT22;315;48.738;9.126;2022-07-06T05:40:46;19.10;99.90
666;DHT22;315;48.738;9.126;2022-07-06T05:43:13;19.30;99.90
666;DHT22;315;48.738;9.126;2022-07-06T05:45:41;19.20;99.90
666;DHT22;315;48.738;9.126;2022-07-06T05:48:06;19.30;99.90
666;DHT22;315;48.738;9.126;2022-07-06T05:50:50;19.30;99.90
666;DHT22;315;48.738;9.126;2022-07-06T05:53:16;19.40;99.90
666;DHT22;315;48.738;9.126;2022-07-06T05:55:44;19.40;99.90
666;DHT22;315;48.738;9.126;2022-07-06T05:58:10;19.40;99.90
666;DHT22;315;48.738;9.126;2022-07-06T06:00:37;19.60;99.90
666;DHT22;315;48.738;9.126;2022-07-06T06:03:05;19.60;99.90
666;DHT22;315;48.738;9.126;2022-07-06T06:05:31;19.50;99.90
666;DHT22;315;48.738;9.126;2022-07-06T06:07:57;19.70;99.90
666;DHT22;315;48.738;9.126;2022-07-06T06:10:22;19.60;99.90
666;DHT22;315;48.738;9.126;2022-07-06T06:12:49;19.70;99.90
666;DHT22;315;48.738;9.126;2022-07-06T06:15:14;19.60;99.90
666;DHT22;315;48.738;9.126;2022-07-06T06:17:40;19.40;99.90
666;DHT22;315;48.738;9.126;2022-07-06T06:20:08;19.30;99.90
666;DHT22;315;48.738;9.126;2022-07-06T06:25:20;19.10;99.90
666;DHT22;315;48.738;9.126;2022-07-06T06:27:45;19.30;99.90
666;DHT22;315;48.738;9.126;2022-07-06T06:30:12;19.60;99.90
666;DHT22;315;48.738;9.126;2022-07-06T06:32:38;19.70;99.90
666;DHT22;315;48.738;9.126;2022-07-06T06:35:04;19.70;99.90
666;DHT22;315;48.738;9.126;2022-07-06T06:37:30;20.10;99.90
666;DHT22;315;48.738;9.126;2022-07-06T06:39:55;20.30;99.90
666;DHT22;315;48.738;9.126;2022-07-06T06:42:21;20.20;99.90
666;DHT22;315;48.738;9.126;2022-07-06T06:44:46;20.10;99.90
666;DHT22;315;48.738;9.126;2022-07-06T06:47:12;20.00;99.90
666;DHT22;315;48.738;9.126;2022-07-06T06:49:37;20.10;99.90
666;DHT22;315;48.738;9.126;2022-07-06T06:52:03;20.20;99.90
666;DHT22;315;48.738;9.126;2022-07-06T06:54:29;20.30;99.90
666;DHT22;315;48.738;9.126;2022-07-06T06:56:54;20.50;99.90
666;DHT22;315;48.738;9.126;2022-07-06T06:59:20;20.80;99.90
666;DHT22;315;48.738;9.126;2022-07-06T07:01:45;21.20;99.90
666;DHT22;315;48.738;9.126;2022-07-06T07:04:11;21.60;99.90
666;DHT22;315;48.738;9.126;2022-07-06T07:06:37;21.80;99.90
666;DHT22;315;48.738;9.126;2022-07-06T07:09:02;22.30;99.40
666;DHT22;315;48.738;9.126;2022-07-06T07:11:28;22.80;98.60
666;DHT22;315;48.738;9.126;2022-07-06T07:13:53;23.10;96.90
666;DHT22;315;48.738;9.126;2022-07-06T07:16:19;22.90;96.20
666;DHT22;315;48.738;9.126;2022-07-06T07:18:45;23.10;96.30
666;DHT22;315;48.738;9.126;2022-07-06T07:21:11;22.80;96.90
666;DHT22;315;48.738;9.126;2022-07-06T07:23:36;23.10;95.50
666;DHT22;315;48.738;9.126;2022-07-06T07:26:02;23.30;95.00
666;DHT22;315;48.738;9.126;2022-07-06T07:28:27;23.50;94.10
666;DHT22;315;48.738;9.126;2022-07-06T07:30:53;23.70;94.30
666;DHT22;315;48.738;9.126;2022-07-06T07:33:18;24.00;94.10
666;DHT22;315;48.738;9.126;2022-07-06T07:35:44;24.20;93.60
666;DHT22;315;48.738;9.126;2022-07-06T07:38:09;24.20;92.70
666;DHT22;315;48.738;9.126;2022-07-06T07:40:35;23.90;92.70
666;DHT22;315;48.738;9.126;2022-07-06T07:43:01;24.20;92.00
666;DHT22;315;48.738;9.126;2022-07-06T07:45:27;24.30;91.00
666;DHT22;315;48.738;9.126;2022-07-06T07:47:52;24.50;90.40
666;DHT22;315;48.738;9.126;2022-07-06T07:50:18;24.60;90.20
666;DHT22;315;48.738;9.126;2022-07-06T07:52:44;24.80;90.20
666;DHT22;315;48.738;9.126;2022-07-06T07:55:10;25.10;89.30
666;DHT22;315;48.738;9.126;2022-07-06T07:57:35;25.20;88.90
666;DHT22;315;48.738;9.126;2022-07-06T08:00:01;25.30;85.60
666;DHT22;315;48.738;9.126;2022-07-06T08:02:27;25.30;85.00
666;DHT22;315;48.738;9.126;2022-07-06T08:04:52;25.50;85.80
666;DHT22;315;48.738;9.126;2022-07-06T08:07:18;25.50;83.60
666;DHT22;315;48.738;9.126;2022-07-06T08:09:43;25.50;82.30
666;DHT22;315;48.738;9.126;2022-07-06T08:12:09;25.40;81.90
666;DHT22;315;48.738;9.126;2022-07-06T08:14:35;24.90;83.70
666;DHT22;315;48.738;9.126;2022-07-06T08:17:02;25.10;83.30
666;DHT22;315;48.738;9.126;2022-07-06T08:19:28;25.50;81.90
666;DHT22;315;48.738;9.126;2022-07-06T08:21:55;25.70;80.60
666;DHT22;315;48.738;9.126;2022-07-06T08:24:21;25.50;80.60
666;DHT22;315;48.738;9.126;2022-07-06T08:26:46;25.80;81.60
666;DHT22;315;48.738;9.126;2022-07-06T08:29:12;26.00;80.80
666;DHT22;315;48.738;9.126;2022-07-06T08:31:37;26.00;82.60
666;DHT22;315;48.738;9.126;2022-07-06T08:34:03;26.30;80.60
666;DHT22;315;48.738;9.126;2022-07-06T08:36:29;26.40;80.10
666;DHT22;315;48.738;9.126;2022-07-06T08:38:55;26.20;77.70
666;DHT22;315;48.738;9.126;2022-07-06T08:41:22;26.00;79.30
666;DHT22;315;48.738;9.126;2022-07-06T08:43:50;26.00;78.50
666;DHT22;315;48.738;9.126;2022-07-06T08:46:16;26.10;78.00
666;DHT22;315;48.738;9.126;2022-07-06T08:48:41;26.10;78.90
666;DHT22;315;48.738;9.126;2022-07-06T08:51:07;26.40;79.20
666;DHT22;315;48.738;9.126;2022-07-06T08:53:33;26.70;77.30
666;DHT22;315;48.738;9.126;2022-07-06T08:56:00;26.60;76.40
666;DHT22;315;48.738;9.126;2022-07-06T08:58:27;26.60;76.10
666;DHT22;315;48.738;9.126;2022-07-06T09:00:54;26.80;75.90
666;DHT22;315;48.738;9.126;2022-07-06T09:03:20;26.80;77.40
666;DHT22;315;48.738;9.126;2022-07-06T09:05:46;27.00;76.90
666;DHT22;315;48.738;9.126;2022-07-06T09:08:13;27.20;75.60
666;DHT22;315;48.738;9.126;2022-07-06T09:10:38;26.90;76.00
666;DHT22;315;48.738;9.126;2022-07-06T09:13:06;26.70;75.20
666;DHT22;315;48.738;9.126;2022-07-06T09:15:33;27.10;75.20
666;DHT22;315;48.738;9.126;2022-07-06T09:17:59;27.20;73.50
666;DHT22;315;48.738;9.126;2022-07-06T09:20:25;27.00;73.70
666;DHT22;315;48.738;9.126;2022-07-06T09:22:50;26.60;75.70
666;DHT22;315;48.738;9.126;2022-07-06T09:25:19;26.90;74.90
666;DHT22;315;48.738;9.126;2022-07-06T09:27:46;27.20;73.10
666;DHT22;315;48.738;9.126;2022-07-06T09:30:19;27.40;73.90
666;DHT22;315;48.738;9.126;2022-07-06T09:32:50;27.70;74.50
666;DHT22;315;48.738;9.126;2022-07-06T09:35:27;27.20;74.90
666;DHT22;315;48.738;9.126;2022-07-06T09:38:07;27.50;74.00
666;DHT22;315;48.738;9.126;2022-07-06T09:40:35;27.80;72.40
666;DHT22;315;48.738;9.126;2022-07-06T09:45:39;28.40;72.10
666;DHT22;315;48.738;9.126;2022-07-06T09:48:11;28.40;70.70
666;DHT22;315;48.738;9.126;2022-07-06T09:50:46;28.90;69.10
666;DHT22;315;48.738;9.126;2022-07-06T09:53:12;28.90;68.10
666;DHT22;315;48.738;9.126;2022-07-06T09:55:40;28.80;67.50
666;DHT22;315;48.738;9.126;2022-07-06T09:58:08;28.60;68.50
666;DHT22;315;48.738;9.126;2022-07-06T10:00:33;29.00;68.70
666;DHT22;315;48.738;9.126;2022-07-06T10:03:00;29.60;68.00
666;DHT22;315;48.738;9.126;2022-07-06T10:05:26;30.40;64.70
666;DHT22;315;48.738;9.126;2022-07-06T10:07:57;31.20;62.90
666;DHT22;315;48.738;9.126;2022-07-06T10:10:29;31.30;61.50
666;DHT22;315;48.738;9.126;2022-07-06T10:12:56;29.90;61.70
666;DHT22;315;48.738;9.126;2022-07-06T10:15:26;28.90;64.20
666;DHT22;315;48.738;9.126;2022-07-06T10:17:53;29.10;63.90
666;DHT22;315;48.738;9.126;2022-07-06T10:20:20;30.70;61.40
666;DHT22;315;48.738;9.126;2022-07-06T10:22:47;31.30;59.00
666;DHT22;315;48.738;9.126;2022-07-06T10:25:16;31.30;58.70
666;DHT22;315;48.738;9.126;2022-07-06T10:27:42;31.10;58.00
666;DHT22;315;48.738;9.126;2022-07-06T10:30:09;31.80;58.10
666;DHT22;315;48.738;9.126;2022-07-06T10:32:35;32.30;56.90
666;DHT22;315;48.738;9.126;2022-07-06T10:35:02;33.00;55.90
666;DHT22;315;48.738;9.126;2022-07-06T10:37:28;34.00;54.00
666;DHT22;315;48.738;9.126;2022-07-06T10:39:54;33.70;53.30
666;DHT22;315;48.738;9.126;2022-07-06T10:42:42;33.30;52.70
666;DHT22;315;48.738;9.126;2022-07-06T10:45:13;33.90;51.10
666;DHT22;315;48.738;9.126;2022-07-06T10:47:41;33.10;51.70
666;DHT22;315;48.738;9.126;2022-07-06T10:50:07;33.50;51.40
666;DHT22;315;48.738;9.126;2022-07-06T10:52:53;33.60;51.20
666;DHT22;315;48.738;9.126;2022-07-06T10:55:29;35.20;50.10
666;DHT22;315;48.738;9.126;2022-07-06T10:57:58;35.00;49.20
666;DHT22;315;48.738;9.126;2022-07-06T11:00:24;35.40;48.20
666;DHT22;315;48.738;9.126;2022-07-06T11:02:49;35.50;47.10
666;DHT22;315;48.738;9.126;2022-07-06T11:05:40;35.50;48.10
666;DHT22;315;48.738;9.126;2022-07-06T11:08:09;35.80;47.20
666;DHT22;315;48.738;9.126;2022-07-06T11:10:47;34.10;47.60
666;DHT22;315;48.738;9.126;2022-07-06T11:13:27;31.60;50.20
666;DHT22;315;48.738;9.126;2022-07-06T11:16:01;30.50;52.50
666;DHT22;315;48.738;9.126;2022-07-06T11:18:42;32.00;52.00
666;DHT22;315;48.738;9.126;2022-07-06T11:21:17;34.10;49.40
666;DHT22;315;48.738;9.126;2022-07-06T11:23:46;36.00;46.60
666;DHT22;315;48.738;9.126;2022-07-06T11:26:13;36.80;45.60
666;DHT22;315;48.738;9.126;2022-07-06T11:28:38;37.50;44.70
666;DHT22;315;48.738;9.126;2022-07-06T11:31:04;38.30;42.90
666;DHT22;315;48.738;9.126;2022-07-06T11:33:30;38.70;41.60
666;DHT22;315;48.738;9.126;2022-07-06T11:36:15;38.40;41.20
666;DHT22;315;48.738;9.126;2022-07-06T11:38:42;37.00;42.10
666;DHT22;315;48.738;9.126;2022-07-06T11:41:08;36.60;42.70
666;DHT22;315;48.738;9.126;2022-07-06T11:43:34;36.40;43.40
666;DHT22;315;48.738;9.126;2022-07-06T11:46:00;34.70;44.10
666;DHT22;315;48.738;9.126;2022-07-06T11:48:26;33.00;45.70
666;DHT22;315;48.738;9.126;2022-07-06T11:51:01;32.20;47.00
666;DHT22;315;48.738;9.126;2022-07-06T11:53:27;32.80;46.80
666;DHT22;315;48.738;9.126;2022-07-06T11:55:53;33.90;45.70
666;DHT22;315;48.738;9.126;2022-07-06T11:58:22;34.10;45.20
666;DHT22;315;48.738;9.126;2022-07-06T12:01:07;34.90;45.30
666;DHT22;315;48.738;9.126;2022-07-06T12:03:33;34.80;44.80
666;DHT22;315;48.738;9.126;2022-07-06T12:06:03;36.00;43.90
666;DHT22;315;48.738;9.126;2022-07-06T12:08:29;37.20;42.50
666;DHT22;315;48.738;9.126;2022-07-06T12:10:55;38.30;41.30
666;DHT22;315;48.738;9.126;2022-07-06T12:13:22;39.00;41.10
666;DHT22;315;48.738;9.126;2022-07-06T12:15:48;39.10;40.40
666;DHT22;315;48.738;9.126;2022-07-06T12:18:13;38.50;40.50
666;DHT22;315;48.738;9.126;2022-07-06T12:20:39;37.70;41.10
666;DHT22;315;48.738;9.126;2022-07-06T12:23:06;38.60;40.20
666;DHT22;315;48.738;9.126;2022-07-06T12:25:32;37.00;40.90
666;DHT22;315;48.738;9.126;2022-07-06T12:27:58;35.30;42.30
666;DHT22;315;48.738;9.126;2022-07-06T12:30:24;34.20;43.50
666;DHT22;315;48.738;9.126;2022-07-06T12:33:14;33.50;44.00
666;DHT22;315;48.738;9.126;2022-07-06T12:35:44;32.70;45.50
666;DHT22;315;48.738;9.126;2022-07-06T12:38:10;31.40;46.60
666;DHT22;315;48.738;9.126;2022-07-06T12:40:36;30.60;48.00
666;DHT22;315;48.738;9.126;2022-07-06T12:43:03;30.40;48.80
666;DHT22;315;48.738;9.126;2022-07-06T12:45:30;31.70;47.70
666;DHT22;315;48.738;9.126;2022-07-06T12:48:05;34.70;45.10
666;DHT22;315;48.738;9.126;2022-07-06T12:50:38;35.80;42.70
666;DHT22;315;48.738;9.126;2022-07-06T12:53:05;34.10;43.30
666;DHT22;315;48.738;9.126;2022-07-06T12:55:33;32.50;44.70
666;DHT22;315;48.738;9.126;2022-07-06T12:57:59;30.80;46.90
666;DHT22;315;48.738;9.126;2022-07-06T13:00:25;30.30;47.80
666;DHT22;315;48.738;9.126;2022-07-06T13:02:52;29.80;48.40
666;DHT22;315;48.738;9.126;2022-07-06T13:05:25;29.40;48.90
666;DHT22;315;48.738;9.126;2022-07-06T13:07:56;28.90;50.20
666;DHT22;315;48.738;9.126;2022-07-06T13:10:22;28.90;50.30
666;DHT22;315;48.738;9.126;2022-07-06T13:12:49;29.70;49.60
666;DHT22;315;48.738;9.126;2022-07-06T13:15:15;31.60;47.60
666;DHT22;315;48.738;9.126;2022-07-06T13:17:41;32.20;46.20
666;DHT22;315;48.738;9.126;2022-07-06T13:20:08;31.60;46.50
666;DHT22;315;48.738;9.126;2022-07-06T13:22:34;30.70;47.30
666;DHT22;315;48.738;9.126;2022-07-06T13:25:00;30.10;48.40
666;DHT22;315;48.738;9.126;2022-07-06T13:27:26;30.20;48.40
666;DHT22;315;48.738;9.126;2022-07-06T13:29:52;31.10;47.70
666;DHT22;315;48.738;9.126;2022-07-06T13:32:17;30.80;47.80
666;DHT22;315;48.738;9.126;2022-07-06T13:34:43;30.60;47.40
666;DHT22;315;48.738;9.126;2022-07-06T13:37:08;29.70;48.80
666;DHT22;315;48.738;9.126;2022-07-06T13:39:34;29.30;50.30
666;DHT22;315;48.738;9.126;2022-07-06T13:41:59;29.60;49.60
666;DHT22;315;48.738;9.126;2022-07-06T13:44:25;29.60;48.90
666;DHT22;315;48.738;9.126;2022-07-06T13:46:51;30.00;48.90
666;DHT22;315;48.738;9.126;2022-07-06T13:49:17;29.80;48.90
666;DHT22;315;48.738;9.126;2022-07-06T13:51:43;29.70;49.50
666;DHT22;315;48.738;9.126;2022-07-06T13:54:09;30.20;49.00
666;DHT22;315;48.738;9.126;2022-07-06T13:56:36;30.40;48.70
666;DHT22;315;48.738;9.126;2022-07-06T13:59:02;29.70;48.90
666;DHT22;315;48.738;9.126;2022-07-06T14:01:27;28.50;50.00
666;DHT22;315;48.738;9.126;2022-07-06T14:03:53;28.40;50.30
666;DHT22;315;48.738;9.126;2022-07-06T14:06:19;28.30;50.30
666;DHT22;315;48.738;9.126;2022-07-06T14:08:45;28.00;50.90
666;DHT22;315;48.738;9.126;2022-07-06T14:11:10;27.60;51.10
666;DHT22;315;48.738;9.126;2022-07-06T14:13:37;27.50;51.90
666;DHT22;315;48.738;9.126;2022-07-06T14:16:03;27.40;52.00
666;DHT22;315;48.738;9.126;2022-07-06T14:18:29;27.30;52.50
666;DHT22;315;48.738;9.126;2022-07-06T14:20:55;27.20;51.80
666;DHT22;315;48.738;9.126;2022-07-06T14:23:21;27.10;53.10
666;DHT22;315;48.738;9.126;2022-07-06T14:25:48;27.00;52.40
666;DHT22;315;48.738;9.126;2022-07-06T14:28:13;26.80;52.50
666;DHT22;315;48.738;9.126;2022-07-06T14:30:40;26.80;52.80
666;DHT22;315;48.738;9.126;2022-07-06T14:33:07;26.70;52.60
666;DHT22;315;48.738;9.126;2022-07-06T14:35:39;26.80;52.70
666;DHT22;315;48.738;9.126;2022-07-06T14:38:06;26.80;52.90
666;DHT22;315;48.738;9.126;2022-07-06T14:40:33;26.50;52.80
666;DHT22;315;48.738;9.126;2022-07-06T14:42:59;26.40;53.70
666;DHT22;315;48.738;9.126;2022-07-06T14:45:25;26.30;54.10
666;DHT22;315;48.738;9.126;2022-07-06T14:47:51;26.20;54.20
666;DHT22;315;48.738;9.126;2022-07-06T14:50:17;26.20;54.20
666;DHT22;315;48.738;9.126;2022-07-06T14:52:42;26.30;53.60
666;DHT22;315;48.738;9.126;2022-07-06T14:55:08;26.20;53.60
666;DHT22;315;48.738;9.126;2022-07-06T14:57:33;26.00;53.80
666;DHT22;315;48.738;9.126;2022-07-06T14:59:59;26.00;54.40
666;DHT22;315;48.738;9.126;2022-07-06T15:02:24;25.80;54.60
666;DHT22;315;48.738;9.126;2022-07-06T15:04:50;25.90;54.50
666;DHT22;315;48.738;9.126;2022-07-06T15:07:16;25.70;55.10
666;DHT22;315;48.738;9.126;2022-07-06T15:09:41;25.80;54.30
666;DHT22;315;48.738;9.126;2022-07-06T15:12:07;25.90;54.80
666;DHT22;315;48.738;9.126;2022-07-06T15:14:33;25.80;54.50
666;DHT22;315;48.738;9.126;2022-07-06T15:16:59;25.50;54.50
666;DHT22;315;48.738;9.126;2022-07-06T15:19:24;25.50;54.80
666;DHT22;315;48.738;9.126;2022-07-06T15:21:50;25.40;54.40
666;DHT22;315;48.738;9.126;2022-07-06T15:24:16;25.30;54.60
666;DHT22;315;48.738;9.126;2022-07-06T15:26:42;25.40;54.70
666;DHT22;315;48.738;9.126;2022-07-06T15:29:08;25.20;54.80
666;DHT22;315;48.738;9.126;2022-07-06T15:31:33;25.20;54.80
666;DHT22;315;48.738;9.126;2022-07-06T15:33:59;25.00;55.20
666;DHT22;315;48.738;9.126;2022-07-06T15:36:24;25.00;55.00
666;DHT22;315;48.738;9.126;2022-07-06T15:38:50;24.90;55.90
666;DHT22;315;48.738;9.126;2022-07-06T15:41:16;24.90;55.80
666;DHT22;315;48.738;9.126;2022-07-06T15:43:41;24.90;56.60
666;DHT22;315;48.738;9.126;2022-07-06T15:46:07;24.90;56.80
666;DHT22;315;48.738;9.126;2022-07-06T15:48:33;25.00;57.00
666;DHT22;315;48.738;9.126;2022-07-06T15:50:59;25.10;56.60
666;DHT22;315;48.738;9.126;2022-07-06T15:53:25;25.20;56.50
666;DHT22;315;48.738;9.126;2022-07-06T15:55:51;25.30;56.50
666;DHT22;315;48.738;9.126;2022-07-06T15:58:17;25.30;56.00
666;DHT22;315;48.738;9.126;2022-07-06T16:00:42;25.40;56.60
666;DHT22;315;48.738;9.126;2022-07-06T16:03:08;25.20;55.60
666;DHT22;315;48.738;9.126;2022-07-06T16:05:34;25.20;55.20
666;DHT22;315;48.738;9.126;2022-07-06T16:07:59;25.20;55.80
666;DHT22;315;48.738;9.126;2022-07-06T16:10:25;25.10;55.10
666;DHT22;315;48.738;9.126;2022-07-06T16:12:53;25.00;55.30
666;DHT22;315;48.738;9.126;2022-07-06T16:15:19;25.00;55.60
666;DHT22;315;48.738;9.126;2022-07-06T16:17:45;25.00;56.00
666;DHT22;315;48.738;9.126;2022-07-06T16:20:10;25.10;55.80
666;DHT22;315;48.738;9.126;2022-07-06T16:22:38;25.20;55.00
666;DHT22;315;48.738;9.126;2022-07-06T16:25:04;25.20;55.10
666;DHT22;315;48.738;9.126;2022-07-06T16:27:30;25.30;55.30
666;DHT22;315;48.738;9.126;2022-07-06T16:29:55;25.30;54.80
666;DHT22;315;48.738;9.126;2022-07-06T16:32:21;25.30;54.90
666;DHT22;315;48.738;9.126;2022-07-06T16:34:46;25.30;53.90
666;DHT22;315;48.738;9.126;2022-07-06T16:37:12;25.10;54.00